createdAt,value
2019-03-16T00:02:35.859Z,5.80
2019-03-16T00:05:22.157Z,5.80
2019-03-16T00:07:52.757Z,5.70
2019-03-16T00:10:58.477Z,5.70
2019-03-16T00:14:05.801Z,5.70
2019-03-16T00:16:54.210Z,5.70
2019-03-16T00:19:44.496Z,5.60
2019-03-16T00:32:38.904Z,5.60
2019-03-16T00:35:32.638Z,5.60
2019-03-16T00:38:29.837Z,5.60
2019-03-16T00:41:30.861Z,5.60
2019-03-16T00:45:00.568Z,5.50
2019-03-16T00:47:31.588Z,5.60
2019-03-16T00:50:06.247Z,5.60
2019-03-16T00:52:47.700Z,5.60
2019-03-16T00:55:27.892Z,5.60
2019-03-16T01:01:54.809Z,5.60
2019-03-16T01:05:29.839Z,5.60
2019-03-16T01:19:46.488Z,5.60
2019-03-16T01:26:46.177Z,5.60
2019-03-16T01:29:22.002Z,5.60
2019-03-16T01:31:55.195Z,5.60
2019-03-16T01:34:34.682Z,5.60
2019-03-16T01:37:22.695Z,5.60
2019-03-16T01:40:13.938Z,5.60
2019-03-16T01:47:20.601Z,5.60
2019-03-16T01:49:52.177Z,5.60
2019-03-16T01:52:37.693Z,5.60
2019-03-16T01:55:13.366Z,5.60
2019-03-16T01:58:02.113Z,5.60
2019-03-16T02:00:35.353Z,5.60
2019-03-16T02:03:34.706Z,5.60
2019-03-16T02:06:08.715Z,5.60
2019-03-16T02:08:39.050Z,5.60
2019-03-16T02:11:18.395Z,5.60
2019-03-16T02:13:51.710Z,5.60
2019-03-16T02:16:24.848Z,5.60
2019-03-16T02:19:05.850Z,5.60
2019-03-16T02:21:44.886Z,5.60
2019-03-16T02:24:31.883Z,5.70
2019-03-16T02:27:12.378Z,5.70
2019-03-16T02:29:44.660Z,5.60
2019-03-16T02:35:16.926Z,5.70
2019-03-16T02:38:14.649Z,5.70
2019-03-16T02:41:01.060Z,5.80
2019-03-16T02:43:35.736Z,5.80
2019-03-16T02:46:13.573Z,5.80
2019-03-16T02:49:07.031Z,5.80
2019-03-16T02:51:46.862Z,5.80
2019-03-16T02:54:27.999Z,5.90
2019-03-16T02:57:10.328Z,5.90
2019-03-16T02:59:46.213Z,5.90
2019-03-16T03:06:11.968Z,5.90
2019-03-16T03:11:54.806Z,5.80
2019-03-16T03:48:06.398Z,5.80
2019-03-16T03:56:09.579Z,5.80
2019-03-16T04:36:16.347Z,5.70
2019-03-16T06:32:56.026Z,6.50
2019-03-16T06:48:30.401Z,6.50
2019-03-16T06:56:02.783Z,6.60
2019-03-16T07:03:42.525Z,6.90
2019-03-16T07:07:47.653Z,7.00
2019-03-16T07:11:33.032Z,7.10
2019-03-16T07:15:27.369Z,7.10
2019-03-16T07:27:25.403Z,7.40
2019-03-16T07:31:08.795Z,7.40
2019-03-16T07:35:17.889Z,7.50
2019-03-16T07:38:58.429Z,7.50
2019-03-16T07:46:38.296Z,7.60
2019-03-16T07:58:12.503Z,7.70
2019-03-16T08:01:33.856Z,7.80
2019-03-16T08:05:36.916Z,7.80
2019-03-16T08:09:25.997Z,7.80
2019-03-16T08:13:12.226Z,7.90
2019-03-16T08:20:06.798Z,8.00
2019-03-16T08:23:28.793Z,8.00
2019-03-16T08:26:37.303Z,8.00
2019-03-16T08:31:26.097Z,8.10
2019-03-16T08:33:23.087Z,8.10
2019-03-16T08:36:39.853Z,8.10
2019-03-16T08:39:57.575Z,8.20
2019-03-16T08:46:41.787Z,8.20
2019-03-16T08:50:02.264Z,8.20
2019-03-16T08:53:11.729Z,8.20
2019-03-16T08:56:39.727Z,8.30
2019-03-16T08:59:59.809Z,8.20
2019-03-16T09:02:43.625Z,8.30
2019-03-16T09:09:38.210Z,8.30
2019-03-16T09:13:06.338Z,8.30
2019-03-16T09:16:16.288Z,8.40
2019-03-16T09:19:37.876Z,8.30
2019-03-16T09:23:32.110Z,8.30
2019-03-16T09:26:29.595Z,8.30
2019-03-16T09:31:45.201Z,8.30
2019-03-16T09:34:05.179Z,8.40
2019-03-16T09:37:37.833Z,8.30
2019-03-16T09:41:16.126Z,8.30
2019-03-16T09:48:15.274Z,8.30
2019-03-16T09:51:04.630Z,8.30
2019-03-16T09:54:27.884Z,8.30
2019-03-16T09:57:33.607Z,8.30
2019-03-16T10:01:03.613Z,8.30
2019-03-16T10:04:17.976Z,8.20
2019-03-16T10:07:21.991Z,8.20
2019-03-16T10:10:35.724Z,8.20
2019-03-16T10:14:08.702Z,8.20
2019-03-16T10:17:37.663Z,8.30
2019-03-16T10:20:50.199Z,8.30
2019-03-16T10:23:45.234Z,8.30
2019-03-16T10:26:42.092Z,8.30
2019-03-16T10:29:41.440Z,8.30
2019-03-16T10:32:58.999Z,8.40
2019-03-16T10:39:08.864Z,8.50
2019-03-16T10:42:02.865Z,8.50
2019-03-16T10:44:53.634Z,8.60
2019-03-16T10:47:28.504Z,8.60
2019-03-16T10:50:13.008Z,8.60
2019-03-16T10:53:10.351Z,8.60
2019-03-16T10:56:19.128Z,8.50
2019-03-16T10:59:04.708Z,8.50
2019-03-16T11:05:55.626Z,8.50
2019-03-16T11:09:10.985Z,8.50
2019-03-16T11:12:26.944Z,8.50
2019-03-16T11:15:54.685Z,8.60
2019-03-16T11:19:36.270Z,8.60
2019-03-16T11:26:59.175Z,8.60
2019-03-16T11:30:39.106Z,8.60
2019-03-16T11:33:48.376Z,8.60
2019-03-16T11:36:57.546Z,8.60
2019-03-16T11:39:51.867Z,8.50
2019-03-16T11:42:27.237Z,8.40
2019-03-16T11:45:07.292Z,8.40
2019-03-16T11:47:53.492Z,8.40
2019-03-16T11:50:29.040Z,8.40
2019-03-16T11:53:21.736Z,8.50
2019-03-16T11:56:22.869Z,8.50
2019-03-16T11:59:21.466Z,8.50
2019-03-16T12:01:48.989Z,8.50
2019-03-16T12:04:49.278Z,8.50
2019-03-16T12:08:20.961Z,8.50
2019-03-16T12:15:08.618Z,8.40
2019-03-16T12:18:04.057Z,8.40
2019-03-16T12:21:22.954Z,8.40
2019-03-16T12:24:55.940Z,8.40
2019-03-16T12:28:14.330Z,8.40
2019-03-16T12:32:05.938Z,8.40
2019-03-16T12:35:36.806Z,8.40
2019-03-16T12:39:05.319Z,8.40
2019-03-16T12:52:35.358Z,8.20
2019-03-16T12:56:13.809Z,8.20
2019-03-16T12:59:24.577Z,8.20
2019-03-16T13:06:28.199Z,8.20
2019-03-16T13:13:32.678Z,8.20
2019-03-16T13:20:17.200Z,8.20
2019-03-16T13:23:17.673Z,8.30
2019-03-16T13:26:10.119Z,8.30
2019-03-16T13:28:49.898Z,8.30
2019-03-16T13:31:51.063Z,8.30
2019-03-16T13:34:44.033Z,8.40
2019-03-16T13:37:21.762Z,8.40
2019-03-16T13:40:29.025Z,8.40
2019-03-16T13:43:27.477Z,8.30
2019-03-16T13:46:23.782Z,8.40
2019-03-16T13:48:55.148Z,8.50
2019-03-16T13:51:36.539Z,8.40
2019-03-16T13:54:15.348Z,8.50
2019-03-16T13:57:00.579Z,8.50
2019-03-16T13:59:37.079Z,8.60
2019-03-16T14:02:22.822Z,8.50
2019-03-16T14:04:58.580Z,8.40
2019-03-16T14:07:49.992Z,8.30
2019-03-16T14:10:48.202Z,8.20
2019-03-16T14:14:12.927Z,8.10
2019-03-16T14:17:43.439Z,7.90
2019-03-16T14:20:46.114Z,7.80
2019-03-16T14:24:04.200Z,7.70
2019-03-16T14:27:04.471Z,7.70
2019-03-16T14:34:25.320Z,7.80
2019-03-16T14:37:19.357Z,7.80
2019-03-16T14:40:16.530Z,7.80
2019-03-16T14:43:34.762Z,7.90
2019-03-16T14:46:31.250Z,7.90
2019-03-16T14:49:12.388Z,7.90
2019-03-16T14:51:48.988Z,7.80
2019-03-16T14:54:37.757Z,7.80
2019-03-16T14:57:56.960Z,7.90
2019-03-16T15:01:04.163Z,7.80
2019-03-16T15:04:23.379Z,7.80
2019-03-16T15:08:00.698Z,7.80
2019-03-16T15:11:08.740Z,7.80
2019-03-16T15:14:30.748Z,7.70
2019-03-16T15:18:11.070Z,7.70
2019-03-16T15:21:55.325Z,7.60
2019-03-16T15:25:13.659Z,7.60
2019-03-16T15:28:54.589Z,7.70
2019-03-16T15:32:23.502Z,7.70
2019-03-16T15:35:43.471Z,7.70
2019-03-16T15:39:26.594Z,7.70
2019-03-16T15:42:38.528Z,7.70
2019-03-16T15:45:52.012Z,7.70
2019-03-16T15:49:30.112Z,7.70
2019-03-16T15:52:37.549Z,7.70
2019-03-16T15:55:48.455Z,7.70
2019-03-16T16:02:21.545Z,7.80
2019-03-16T16:05:39.276Z,7.80
2019-03-16T16:08:38.653Z,7.90
2019-03-16T16:11:34.685Z,7.90
2019-03-16T16:14:29.682Z,8.00
2019-03-16T16:17:33.947Z,7.90
2019-03-16T16:20:28.593Z,7.90
2019-03-16T16:23:04.970Z,8.00
2019-03-16T16:26:06.923Z,7.90
2019-03-16T16:29:34.729Z,7.90
2019-03-16T16:32:41.575Z,8.00
2019-03-16T16:35:49.083Z,8.00
2019-03-16T16:39:02.601Z,8.00
2019-03-16T16:45:36.068Z,7.90
2019-03-16T16:48:41.524Z,7.80
2019-03-16T16:55:31.498Z,7.90
2019-03-16T16:58:49.362Z,7.90
2019-03-16T17:02:30.586Z,7.90
2019-03-16T17:05:31.554Z,7.80
2019-03-16T17:16:02.415Z,7.80
2019-03-16T17:19:15.479Z,7.80
2019-03-16T17:22:43.352Z,7.80
2019-03-16T17:26:20.958Z,7.80
2019-03-16T17:33:19.435Z,7.80
2019-03-16T17:40:11.145Z,7.70
2019-03-16T17:43:34.910Z,7.70
2019-03-16T17:46:51.977Z,7.60
2019-03-16T17:50:14.678Z,7.70
2019-03-16T17:53:42.756Z,7.70
2019-03-16T17:57:07.626Z,7.60
2019-03-16T18:00:12.522Z,7.60
2019-03-16T18:03:30.442Z,7.60
2019-03-16T18:06:54.410Z,7.60
2019-03-16T18:10:25.305Z,7.60
2019-03-16T18:13:45.957Z,7.50
2019-03-16T18:17:10.789Z,7.50
2019-03-16T18:20:31.858Z,7.50
2019-03-16T18:23:49.843Z,7.40
2019-03-16T18:26:46.487Z,7.40
2019-03-16T18:30:13.338Z,7.40
2019-03-16T18:33:31.304Z,7.50
2019-03-16T18:36:18.678Z,7.40
2019-03-16T18:38:57.462Z,7.50
2019-03-16T18:41:46.725Z,7.50
2019-03-16T18:45:16.017Z,7.50
2019-03-16T18:48:32.947Z,7.40
2019-03-16T18:51:22.632Z,7.40
2019-03-16T18:55:02.658Z,7.40
2019-03-16T18:58:37.691Z,7.40
2019-03-16T19:02:22.750Z,7.30
2019-03-16T19:05:33.068Z,7.30
2019-03-16T19:08:35.996Z,7.30
2019-03-16T19:12:16.630Z,7.30
2019-03-16T19:15:59.241Z,7.30
2019-03-16T19:19:09.475Z,7.20
2019-03-16T19:22:03.722Z,7.30
2019-03-16T19:24:50.855Z,7.20
2019-03-16T19:27:44.500Z,7.20
2019-03-16T19:31:11.242Z,7.20
2019-03-16T19:37:41.271Z,7.20
2019-03-16T19:41:04.729Z,7.20
2019-03-16T19:44:23.171Z,7.10
2019-03-16T19:47:45.714Z,7.10
2019-03-16T19:50:38.248Z,7.10
2019-03-16T19:53:58.760Z,7.10
2019-03-16T19:57:16.810Z,7.10
2019-03-16T20:00:08.522Z,7.10
2019-03-16T20:03:09.867Z,7.00
2019-03-16T20:05:44.897Z,7.00
2019-03-16T20:08:30.862Z,7.00
2019-03-16T20:11:35.450Z,7.00
2019-03-16T20:14:48.602Z,7.00
2019-03-16T20:17:44.548Z,7.00
2019-03-16T20:20:28.812Z,7.00
2019-03-16T20:23:17.658Z,7.00
2019-03-16T20:26:00.380Z,7.00
2019-03-16T20:28:58.172Z,7.00
2019-03-16T20:32:05.986Z,7.00
2019-03-16T20:34:53.297Z,7.00
2019-03-16T20:37:57.031Z,7.00
2019-03-16T20:40:38.991Z,7.00
2019-03-16T20:43:30.436Z,7.00
2019-03-16T20:46:22.752Z,7.00
2019-03-16T20:49:19.617Z,7.00
2019-03-16T20:52:14.125Z,7.00
2019-03-16T20:55:36.178Z,7.00
2019-03-16T20:58:37.120Z,7.00
2019-03-16T21:01:49.327Z,7.00
2019-03-16T21:04:54.076Z,7.00
2019-03-16T21:08:20.373Z,7.00
2019-03-16T21:11:32.710Z,7.00
2019-03-16T21:14:26.271Z,7.10
2019-03-16T21:17:30.042Z,7.10
2019-03-16T21:20:37.490Z,7.10
2019-03-16T21:23:41.233Z,7.00
2019-03-16T21:26:36.954Z,7.00
2019-03-16T21:29:38.208Z,7.00
2019-03-16T21:32:45.794Z,7.00
2019-03-16T21:35:49.016Z,7.00
2019-03-16T21:38:52.677Z,7.00
2019-03-16T21:41:47.872Z,7.00
2019-03-16T21:45:03.507Z,7.00
2019-03-16T21:48:09.531Z,7.00
2019-03-16T21:51:30.090Z,6.90
2019-03-16T21:54:22.265Z,6.90
2019-03-16T21:57:22.144Z,6.90
2019-03-16T22:00:40.112Z,6.90
2019-03-16T22:03:49.431Z,6.90
2019-03-16T22:07:04.360Z,6.90
2019-03-16T22:09:59.909Z,6.90
2019-03-16T22:13:21.343Z,6.90
2019-03-16T22:20:13.015Z,6.80
2019-03-16T22:27:09.995Z,6.80
2019-03-16T22:30:06.368Z,6.80
2019-03-16T22:33:17.210Z,6.80
2019-03-16T22:36:26.000Z,6.80
2019-03-16T22:42:36.628Z,6.80
2019-03-16T22:45:22.327Z,6.80
2019-03-16T22:48:23.454Z,6.80
2019-03-16T22:51:20.847Z,6.80
2019-03-16T22:54:19.008Z,6.80
2019-03-16T22:57:00.008Z,6.80
2019-03-16T23:00:00.386Z,6.70
2019-03-16T23:02:46.078Z,6.70
2019-03-16T23:05:30.021Z,6.80
2019-03-16T23:08:09.546Z,6.80
2019-03-16T23:11:03.220Z,6.80
2019-03-16T23:13:45.503Z,6.80
2019-03-16T23:16:29.743Z,6.80
2019-03-16T23:19:28.042Z,6.80
2019-03-16T23:22:20.063Z,6.80
2019-03-16T23:25:06.673Z,6.90
2019-03-16T23:27:53.596Z,6.80
2019-03-16T23:30:59.352Z,6.90
2019-03-16T23:34:01.321Z,6.90
2019-03-16T23:36:56.071Z,6.90
2019-03-16T23:39:44.516Z,6.80
2019-03-16T23:42:46.905Z,6.80
2019-03-16T23:45:27.765Z,6.80
2019-03-16T23:48:16.582Z,6.90
2019-03-16T23:50:59.700Z,6.90
2019-03-16T23:54:15.893Z,6.90
2019-03-16T23:56:58.887Z,6.90
2019-03-16T23:59:52.153Z,6.90
